Hauptseite
METAR-TAF:

METAR-TAF

Flughäfen :

Flughafen Brazzaville Maya-Maya

Brazzaville, Kongo

Breite: 04-15S, Länge: 015-15E, Höhe: 319 m

Beobachtung

Neuester Wetterbericht von vor 14 Stunden und 23 Minuten, um 15:00 UTC
Wind 3 kt aus unterschiedlichen Richtungen
Temperatur 29°C
Luftfeuchtigkeit 62%
Luftdruck 1011 hPa
Sichtweite: 7000 m
Leicht bewölkt in der Höhe von 2300 ft

METAR: FCBB 241500Z VRB03KT 7000 FEW023 29/21 Q1011 NOSIG

Zeit: 06:23 (05:23 UTC)

Prognose

Neuester Wetterbericht von vor 6 Stunden und 23 Minuten, um 23:00 UTC
Gültige Prognose vom 25 um 00 UTC bis 26 um 06 UTC
Wind 4 kt aus Südwest
Sichtweite: 6000 m
Leicht bewölkt in der Höhe von 2000 ft
Wahrscheinlichkeit 40%
vom 25 um 16 UTC bis 25 um 21 UTC
Sichtweite: 4000 m
trockener Dunst,

TAF: FCBB 242300Z 2500/2606 23004KT 6000 FEW020 PROB40 2516/2521 4000 HZ

Wetterbeobachtungen und Prognosen von mehr als 4000 Flughäfen (METAR und TAF Bericht).

Die verfügbaren Stationen werden durch gelbe und rote Markierungen auf der Karte dargestellt.

Führen Sie die Maus auf sie, um den Namen der Station zu sehen.

Darauf klicken, um die Beobachtung von Wetterbeobachtungen und Prognosen zu sehen.

Um die Karte zu ändern : klicken Sie auf den grünen Tasten mit einem schwarzen Kreuz Zum Vergrößern, auf den grünen Button mit einem Gedankenstrich zu verkleinern, oder auf die grünen Pfeile für benachbarte Karten.


METAR-TAF: